Time;durP1;ratioP1;P1;durP2;ratioP2;P2;SDS_P1;SDS_P2;PMS_P1;PMS_P2;Temp;Humidity;BMP_temperature;BMP_pressure;BME280_temperature;BME280_humidity;BME280_pressure;Samples;Min_cycle;Max_cycle;Signal;HPM_P1;HPM_P2
2022/12/08 00:02:00;;;;;;;15.27;10.33;;;;;;;;;;753300;185;619777;-61
2022/12/08 00:04:25;;;;;;;14.90;10.93;;;;;;;;;;729590;189;918551;-63
2022/12/08 00:09:26;;;;;;;16.10;10.30;;;;;;;;;;739750;186;918760;-61
2022/12/08 00:11:54;;;;;;;14.70;9.97;;;;;;;;;;743622;187;919384;-62
2022/12/08 00:14:19;;;;;;;18.67;11.60;;;;;;;;;;744909;186;920839;-61
2022/12/08 00:16:45;;;;;;;17.43;9.80;;;;;;;;;;743762;186;919993;-60
2022/12/08 00:19:11;;;;;;;19.13;9.57;;;;;;;;;;750082;186;816291;-61
2022/12/08 00:21:37;;;;;;;13.83;8.40;;;;;;;;;;746313;187;915430;-61
2022/12/08 00:24:03;;;;;;;16.43;9.97;;;;;;;;;;719782;191;918926;-62
2022/12/08 00:26:29;;;;;;;17.73;10.17;;;;;;;;;;745448;187;918637;-62
2022/12/08 00:28:54;;;;;;;14.07;9.33;;;;;;;;;;742725;186;818935;-61
2022/12/08 00:31:20;;;;;;;13.33;9.30;;;;;;;;;;748633;186;817905;-62
2022/12/08 00:33:46;;;;;;;15.85;10.35;;;;;;;;;;750354;186;818556;-61
2022/12/08 00:36:12;;;;;;;16.87;10.60;;;;;;;;;;754293;186;814630;-62
2022/12/08 00:38:38;;;;;;;14.10;9.68;;;;;;;;;;740574;187;919590;-60
2022/12/08 00:41:04;;;;;;;15.57;10.40;;;;;;;;;;743416;187;919092;-61
2022/12/08 00:43:30;;;;;;;18.13;11.20;;;;;;;;;;748599;186;815915;-61
2022/12/08 00:45:55;;;;;;;17.27;12.17;;;;;;;;;;747665;186;919420;-61
2022/12/08 00:48:21;;;;;;;22.90;11.73;;;;;;;;;;743055;186;919151;-62
2022/12/08 00:50:47;;;;;;;15.30;10.00;;;;;;;;;;747142;186;812867;-61
2022/12/08 00:53:13;;;;;;;14.77;11.20;;;;;;;;;;741503;186;819328;-60
2022/12/08 00:55:39;;;;;;;17.50;10.77;;;;;;;;;;740391;188;927244;-60
2022/12/08 00:58:05;;;;;;;17.00;9.53;;;;;;;;;;748039;185;918700;-62
2022/12/08 01:00:30;;;;;;;16.60;11.90;;;;;;;;;;745437;186;816500;-62
2022/12/08 01:02:56;;;;;;;17.27;11.10;;;;;;;;;;730191;189;919538;-60
2022/12/08 01:05:22;;;;;;;16.00;10.30;;;;;;;;;;724415;193;919694;-61
2022/12/08 01:07:48;;;;;;;16.50;11.60;;;;;;;;;;744924;186;918375;-62
2022/12/08 01:10:14;;;;;;;15.13;10.35;;;;;;;;;;730423;191;918190;-61
2022/12/08 01:12:40;;;;;;;19.47;11.30;;;;;;;;;;742733;186;915372;-60
2022/12/08 01:15:06;;;;;;;15.90;10.87;;;;;;;;;;747455;187;918509;-61
2022/12/08 01:17:32;;;;;;;19.27;11.10;;;;;;;;;;745949;186;918949;-61
2022/12/08 01:19:58;;;;;;;15.48;10.23;;;;;;;;;;730969;190;919365;-63
2022/12/08 01:22:24;;;;;;;15.95;11.55;;;;;;;;;;743372;186;920833;-61
2022/12/08 01:24:50;;;;;;;20.47;10.20;;;;;;;;;;751076;187;919642;-61
2022/12/08 01:27:16;;;;;;;20.00;12.50;;;;;;;;;;748287;187;920111;-61
2022/12/08 01:29:42;;;;;;;20.45;11.50;;;;;;;;;;751281;186;918107;-62
2022/12/08 01:32:08;;;;;;;17.30;12.70;;;;;;;;;;750424;186;918017;-60
2022/12/08 01:34:33;;;;;;;16.83;11.93;;;;;;;;;;748275;186;918952;-60
2022/12/08 01:36:59;;;;;;;17.90;10.30;;;;;;;;;;740961;186;917630;-61
2022/12/08 01:39:26;;;;;;;19.70;12.80;;;;;;;;;;746933;187;918966;-60
2022/12/08 01:41:52;;;;;;;16.20;11.20;;;;;;;;;;739813;186;915756;-60
2022/12/08 01:44:32;;;;;;;18.50;11.37;;;;;;;;;;737482;190;919441;-61
2022/12/08 01:46:58;;;;;;;15.90;10.57;;;;;;;;;;712610;193;914583;-63
2022/12/08 01:49:25;;;;;;;17.53;12.03;;;;;;;;;;729400;189;916377;-62
2022/12/08 01:51:51;;;;;;;16.17;10.83;;;;;;;;;;751303;187;695499;-65
2022/12/08 01:54:16;;;;;;;17.13;11.50;;;;;;;;;;748115;186;623667;-63
2022/12/08 01:56:42;;;;;;;17.73;11.30;;;;;;;;;;740410;187;922202;-63
2022/12/08 01:59:08;;;;;;;19.47;12.13;;;;;;;;;;747728;187;636687;-63
2022/12/08 02:01:34;;;;;;;20.83;11.30;;;;;;;;;;740423;187;918634;-61
2022/12/08 02:04:00;;;;;;;15.90;11.03;;;;;;;;;;743721;187;621617;-61
2022/12/08 02:06:26;;;;;;;16.60;11.37;;;;;;;;;;745344;187;918763;-61
2022/12/08 02:08:54;;;;;;;17.60;12.03;;;;;;;;;;737955;187;825994;-63
2022/12/08 02:11:17;;;;;;;20.47;13.30;;;;;;;;;;751760;186;919261;-63
2022/12/08 02:13:43;;;;;;;18.67;12.40;;;;;;;;;;751210;186;920051;-60
2022/12/08 02:16:09;;;;;;;18.07;11.87;;;;;;;;;;732792;189;922689;-61
2022/12/08 02:18:39;;;;;;;20.20;12.50;;;;;;;;;;746728;186;916271;-62
2022/12/08 02:21:06;;;;;;;20.97;12.90;;;;;;;;;;731062;190;919279;-61
2022/12/08 02:23:51;;;;;;;26.90;11.30;;;;;;;;;;747489;186;918005;-62
2022/12/08 02:26:23;;;;;;;21.23;14.20;;;;;;;;;;744290;188;920851;-62
2022/12/08 02:28:51;;;;;;;23.50;13.30;;;;;;;;;;739633;186;919413;-63
2022/12/08 02:31:34;;;;;;;19.87;13.50;;;;;;;;;;735446;190;920968;-64
2022/12/08 02:34:11;;;;;;;22.37;12.37;;;;;;;;;;733325;189;920684;-61
2022/12/08 02:36:40;;;;;;;20.80;12.20;;;;;;;;;;729962;190;927267;-61
2022/12/08 02:39:20;;;;;;;20.70;12.63;;;;;;;;;;720509;191;919452;-60
2022/12/08 02:41:51;;;;;;;19.60;13.77;;;;;;;;;;743407;186;1017040;-61
2022/12/08 02:44:23;;;;;;;16.37;11.60;;;;;;;;;;749090;186;918616;-61
2022/12/08 02:46:51;;;;;;;18.47;13.00;;;;;;;;;;733869;190;915565;-62
2022/12/08 02:49:17;;;;;;;21.30;12.60;;;;;;;;;;747201;186;817268;-62
2022/12/08 02:51:43;;;;;;;20.17;13.20;;;;;;;;;;724066;191;918392;-63
2022/12/08 02:54:09;;;;;;;21.40;12.63;;;;;;;;;;747705;186;814569;-62
2022/12/08 02:56:41;;;;;;;18.73;11.60;;;;;;;;;;731561;190;864696;-63
2022/12/08 02:59:09;;;;;;;21.17;11.97;;;;;;;;;;738087;190;813733;-60
2022/12/08 03:01:53;;;;;;;20.60;13.53;;;;;;;;;;745129;186;916675;-63
2022/12/08 03:04:22;;;;;;;18.33;11.13;;;;;;;;;;733988;190;915312;-62
2022/12/08 03:06:49;;;;;;;21.50;12.83;;;;;;;;;;750293;186;915214;-62
2022/12/08 03:09:17;;;;;;;16.67;10.67;;;;;;;;;;743327;186;919375;-59
2022/12/08 03:11:44;;;;;;;19.35;12.48;;;;;;;;;;746028;186;957811;-61
2022/12/08 03:14:09;;;;;;;16.53;11.43;;;;;;;;;;744167;187;918510;-61
2022/12/08 03:16:35;;;;;;;16.33;10.40;;;;;;;;;;741283;186;919591;-61
2022/12/08 03:19:02;;;;;;;17.40;10.67;;;;;;;;;;735754;190;919632;-60
2022/12/08 03:21:28;;;;;;;19.50;11.23;;;;;;;;;;733976;189;919255;-62
2022/12/08 03:23:54;;;;;;;18.17;11.83;;;;;;;;;;749316;186;913095;-59
2022/12/08 03:26:25;;;;;;;16.13;11.30;;;;;;;;;;737671;186;917509;-61
2022/12/08 03:28:50;;;;;;;16.57;11.13;;;;;;;;;;742845;186;918979;-62
2022/12/08 03:31:16;;;;;;;21.87;12.03;;;;;;;;;;753538;187;916735;-60
2022/12/08 03:33:42;;;;;;;24.90;12.87;;;;;;;;;;749273;186;918300;-61
2022/12/08 03:36:08;;;;;;;20.70;13.67;;;;;;;;;;744443;186;922028;-60
2022/12/08 03:38:36;;;;;;;19.97;12.23;;;;;;;;;;724867;189;918656;-62
2022/12/08 03:43:33;;;;;;;20.00;10.77;;;;;;;;;;749000;186;918589;-61
2022/12/08 03:45:59;;;;;;;17.40;12.10;;;;;;;;;;734465;190;916755;-60
2022/12/08 03:48:25;;;;;;;20.07;12.30;;;;;;;;;;735628;190;917194;-60
2022/12/08 03:50:51;;;;;;;22.23;13.10;;;;;;;;;;737603;186;920513;-61
2022/12/08 03:53:17;;;;;;;20.73;12.60;;;;;;;;;;747200;186;918708;-61
2022/12/08 03:55:42;;;;;;;17.63;10.07;;;;;;;;;;741767;186;850233;-61
2022/12/08 03:58:08;;;;;;;17.83;11.87;;;;;;;;;;747482;186;930811;-61
2022/12/08 04:00:34;;;;;;;19.47;12.47;;;;;;;;;;744228;187;923711;-61
2022/12/08 04:03:00;;;;;;;25.13;15.10;;;;;;;;;;741299;186;919970;-61
2022/12/08 04:05:26;;;;;;;21.37;15.17;;;;;;;;;;754463;186;917309;-60
2022/12/08 04:07:52;;;;;;;27.90;13.00;;;;;;;;;;728783;190;818508;-61
2022/12/08 04:10:17;;;;;;;20.30;13.17;;;;;;;;;;747714;186;919206;-59
2022/12/08 04:12:43;;;;;;;25.80;16.87;;;;;;;;;;747095;186;810316;-61
2022/12/08 04:15:10;;;;;;;24.70;14.40;;;;;;;;;;745695;187;918783;-62
2022/12/08 04:17:35;;;;;;;24.73;15.97;;;;;;;;;;745284;187;919424;-59
2022/12/08 04:20:01;;;;;;;28.63;16.80;;;;;;;;;;732016;187;1021838;-60
2022/12/08 04:22:27;;;;;;;24.47;16.60;;;;;;;;;;725073;191;918662;-61
2022/12/08 04:24:53;;;;;;;23.30;15.20;;;;;;;;;;729600;190;918672;-59
2022/12/08 04:27:19;;;;;;;28.63;14.63;;;;;;;;;;733658;190;918672;-60
2022/12/08 04:29:45;;;;;;;20.87;14.30;;;;;;;;;;752389;186;916762;-60
2022/12/08 04:32:10;;;;;;;23.83;14.90;;;;;;;;;;748066;185;919745;-61
2022/12/08 04:34:36;;;;;;;23.58;15.32;;;;;;;;;;746489;186;916751;-61
2022/12/08 04:37:02;;;;;;;25.57;14.87;;;;;;;;;;752503;186;918386;-60
2022/12/08 04:39:28;;;;;;;29.08;17.00;;;;;;;;;;745491;186;916647;-61
2022/12/08 04:41:54;;;;;;;28.07;17.67;;;;;;;;;;735912;190;897877;-60
2022/12/08 04:44:20;;;;;;;32.80;18.17;;;;;;;;;;738179;190;900048;-60
2022/12/08 04:46:46;;;;;;;23.77;15.63;;;;;;;;;;740705;183;921040;-60
2022/12/08 04:49:11;;;;;;;25.10;15.40;;;;;;;;;;734792;190;932291;-61
2022/12/08 04:51:37;;;;;;;21.37;13.07;;;;;;;;;;736993;185;916658;-62
2022/12/08 04:54:03;;;;;;;19.43;13.00;;;;;;;;;;751091;186;916999;-62
2022/12/08 04:56:29;;;;;;;20.47;14.10;;;;;;;;;;740054;186;917431;-61
2022/12/08 04:58:55;;;;;;;22.62;13.90;;;;;;;;;;742535;186;919541;-61
2022/12/08 05:01:21;;;;;;;19.03;13.50;;;;;;;;;;753127;186;918570;-61
2022/12/08 05:03:46;;;;;;;27.03;12.40;;;;;;;;;;743733;186;927388;-61
2022/12/08 05:06:12;;;;;;;23.27;13.10;;;;;;;;;;735704;189;919020;-61
2022/12/08 05:08:38;;;;;;;18.20;13.37;;;;;;;;;;751470;186;919419;-61
2022/12/08 05:11:04;;;;;;;17.30;12.00;;;;;;;;;;742201;186;917084;-61
2022/12/08 05:13:30;;;;;;;24.17;13.90;;;;;;;;;;741756;186;822586;-63
2022/12/08 05:16:02;;;;;;;26.43;18.30;;;;;;;;;;746041;186;920372;-63
2022/12/08 05:18:28;;;;;;;24.63;15.70;;;;;;;;;;724490;190;918254;-61
2022/12/08 05:20:54;;;;;;;42.00;21.27;;;;;;;;;;742657;187;916930;-58
2022/12/08 05:23:20;;;;;;;37.03;17.90;;;;;;;;;;747678;186;921295;-62
2022/12/08 05:25:46;;;;;;;31.83;17.73;;;;;;;;;;754541;186;617907;-62
2022/12/08 05:28:12;;;;;;;37.33;18.10;;;;;;;;;;747231;186;817104;-60
2022/12/08 05:30:37;;;;;;;27.13;14.33;;;;;;;;;;738537;188;864504;-61
2022/12/08 05:33:03;;;;;;;19.40;10.90;;;;;;;;;;745856;187;858752;-62
2022/12/08 05:35:29;;;;;;;22.40;15.27;;;;;;;;;;750712;185;940830;-62
2022/12/08 05:37:55;;;;;;;17.37;11.53;;;;;;;;;;738772;186;914086;-61
2022/12/08 05:40:21;;;;;;;32.87;16.63;;;;;;;;;;736300;186;1015764;-61
2022/12/08 05:42:47;;;;;;;30.37;17.90;;;;;;;;;;750978;186;626508;-62
2022/12/08 05:45:13;;;;;;;29.80;15.40;;;;;;;;;;739453;188;918299;-62
2022/12/08 05:47:38;;;;;;;30.80;15.40;;;;;;;;;;752193;185;918400;-60
2022/12/08 05:50:05;;;;;;;26.00;15.10;;;;;;;;;;756158;186;922713;-60
2022/12/08 05:52:31;;;;;;;22.27;13.77;;;;;;;;;;742207;186;918578;-60
2022/12/08 05:54:56;;;;;;;27.17;14.17;;;;;;;;;;742010;188;794096;-62
2022/12/08 05:57:22;;;;;;;27.13;15.43;;;;;;;;;;746324;187;919569;-61
2022/12/08 05:59:48;;;;;;;29.90;15.97;;;;;;;;;;746821;187;920707;-60
2022/12/08 06:02:14;;;;;;;24.27;15.30;;;;;;;;;;733780;190;920626;-59
2022/12/08 06:04:41;;;;;;;22.83;14.20;;;;;;;;;;748434;186;817097;-61
2022/12/08 06:07:07;;;;;;;20.97;15.47;;;;;;;;;;745666;186;920233;-60
2022/12/08 06:09:32;;;;;;;23.50;14.98;;;;;;;;;;744492;186;918412;-62
2022/12/08 06:11:58;;;;;;;22.03;14.97;;;;;;;;;;747669;186;918640;-61
2022/12/08 06:14:24;;;;;;;38.80;19.70;;;;;;;;;;755592;186;815576;-62
2022/12/08 06:16:50;;;;;;;29.47;17.57;;;;;;;;;;751317;186;919136;-61
2022/12/08 06:19:16;;;;;;;31.60;17.17;;;;;;;;;;732052;191;914924;-61
2022/12/08 06:21:42;;;;;;;28.70;16.43;;;;;;;;;;718423;195;914341;-61
2022/12/08 06:24:08;;;;;;;23.27;12.83;;;;;;;;;;748005;187;921243;-60
2022/12/08 06:26:34;;;;;;;26.70;15.00;;;;;;;;;;725119;191;915871;-62
2022/12/08 06:28:59;;;;;;;24.58;12.32;;;;;;;;;;739658;186;912975;-62
2022/12/08 06:31:25;;;;;;;22.73;12.93;;;;;;;;;;744474;187;917133;-61
2022/12/08 06:33:51;;;;;;;20.20;12.60;;;;;;;;;;748819;187;918651;-61
2022/12/08 06:36:17;;;;;;;24.80;13.10;;;;;;;;;;729359;191;832879;-62
2022/12/08 06:38:43;;;;;;;24.07;13.70;;;;;;;;;;739530;189;920310;-61
2022/12/08 06:41:08;;;;;;;21.70;13.40;;;;;;;;;;737955;186;919733;-62
2022/12/08 06:43:34;;;;;;;26.50;14.30;;;;;;;;;;736152;190;920061;-61
2022/12/08 06:46:00;;;;;;;25.33;14.77;;;;;;;;;;747930;187;820853;-60
2022/12/08 06:48:26;;;;;;;23.90;15.80;;;;;;;;;;727167;191;923743;-62
2022/12/08 06:50:52;;;;;;;23.70;14.37;;;;;;;;;;747387;186;919514;-62
2022/12/08 06:53:18;;;;;;;24.50;14.37;;;;;;;;;;745009;188;818350;-60
2022/12/08 06:55:44;;;;;;;25.67;15.80;;;;;;;;;;751751;186;912556;-61
2022/12/08 06:58:09;;;;;;;21.63;14.30;;;;;;;;;;748922;186;918181;-62
2022/12/08 07:00:35;;;;;;;21.93;15.43;;;;;;;;;;750747;186;918752;-62
2022/12/08 07:03:01;;;;;;;21.07;14.57;;;;;;;;;;744811;186;911775;-61
2022/12/08 07:05:27;;;;;;;26.27;15.20;;;;;;;;;;742434;187;816833;-62
2022/12/08 07:07:53;;;;;;;26.63;15.60;;;;;;;;;;744294;186;917806;-62
2022/12/08 07:10:19;;;;;;;24.67;13.40;;;;;;;;;;743087;186;819365;-61
2022/12/08 07:12:44;;;;;;;30.83;14.90;;;;;;;;;;748708;186;918717;-62
2022/12/08 07:15:10;;;;;;;26.30;14.70;;;;;;;;;;739606;187;917789;-61
2022/12/08 07:17:36;;;;;;;27.67;13.47;;;;;;;;;;733289;190;952489;-61
2022/12/08 07:20:02;;;;;;;26.33;14.30;;;;;;;;;;752009;187;869579;-62
2022/12/08 07:22:28;;;;;;;22.10;13.73;;;;;;;;;;742871;186;919078;-61
2022/12/08 07:24:54;;;;;;;28.97;14.10;;;;;;;;;;735007;189;919590;-60
2022/12/08 07:27:20;;;;;;;21.23;13.37;;;;;;;;;;742206;187;919512;-60
2022/12/08 07:29:45;;;;;;;22.37;12.80;;;;;;;;;;732925;190;914941;-62
2022/12/08 07:32:11;;;;;;;19.97;11.97;;;;;;;;;;751905;186;915223;-62
2022/12/08 07:34:37;;;;;;;21.90;13.77;;;;;;;;;;751932;186;910733;-61
2022/12/08 07:37:03;;;;;;;19.53;13.67;;;;;;;;;;741395;187;919306;-61
2022/12/08 07:39:29;;;;;;;21.97;14.30;;;;;;;;;;734068;190;920632;-63
2022/12/08 07:41:55;;;;;;;25.13;15.17;;;;;;;;;;750962;187;927010;-61
2022/12/08 07:44:20;;;;;;;24.30;15.30;;;;;;;;;;751468;186;915738;-62
2022/12/08 07:46:46;;;;;;;24.30;14.33;;;;;;;;;;755511;186;918058;-61
2022/12/08 07:49:12;;;;;;;23.58;15.90;;;;;;;;;;743821;186;816270;-63
2022/12/08 07:51:38;;;;;;;26.87;15.80;;;;;;;;;;735843;186;919297;-61
2022/12/08 07:54:04;;;;;;;21.93;15.23;;;;;;;;;;723499;190;919777;-62
2022/12/08 07:56:30;;;;;;;29.50;15.20;;;;;;;;;;736145;190;920664;-62
2022/12/08 07:58:56;;;;;;;22.00;14.57;;;;;;;;;;743886;186;916715;-62
2022/12/08 08:01:23;;;;;;;22.60;15.40;;;;;;;;;;737238;187;918945;-62
2022/12/08 08:03:49;;;;;;;23.00;12.23;;;;;;;;;;738516;186;920919;-64
2022/12/08 08:06:15;;;;;;;24.85;15.98;;;;;;;;;;737007;191;917744;-63
2022/12/08 08:08:41;;;;;;;24.67;14.90;;;;;;;;;;738297;190;823792;-63
2022/12/08 08:11:07;;;;;;;24.07;14.87;;;;;;;;;;727339;189;921805;-61
2022/12/08 08:13:33;;;;;;;24.37;15.10;;;;;;;;;;749684;186;920607;-63
2022/12/08 08:16:01;;;;;;;23.73;16.60;;;;;;;;;;748970;186;818004;-62
2022/12/08 08:18:27;;;;;;;27.03;17.27;;;;;;;;;;740749;186;920615;-63
2022/12/08 08:20:53;;;;;;;25.40;13.87;;;;;;;;;;739278;186;919000;-62
2022/12/08 08:23:19;;;;;;;21.80;13.60;;;;;;;;;;750101;186;918221;-62
2022/12/08 08:25:45;;;;;;;23.70;16.80;;;;;;;;;;738646;189;917825;-64
2022/12/08 08:28:11;;;;;;;26.80;16.30;;;;;;;;;;741414;190;816325;-63
2022/12/08 08:30:36;;;;;;;26.00;16.73;;;;;;;;;;737141;190;919251;-60
2022/12/08 08:33:02;;;;;;;28.13;18.80;;;;;;;;;;743873;186;919189;-63
2022/12/08 08:35:29;;;;;;;38.17;21.60;;;;;;;;;;750214;186;918890;-61
2022/12/08 08:37:54;;;;;;;31.07;18.53;;;;;;;;;;743270;187;917724;-61
2022/12/08 08:40:20;;;;;;;29.97;20.03;;;;;;;;;;748111;186;707542;-63
2022/12/08 08:42:46;;;;;;;40.40;23.07;;;;;;;;;;744929;187;918991;-61
2022/12/08 08:45:12;;;;;;;42.60;26.43;;;;;;;;;;747227;187;881231;-62
2022/12/08 08:47:37;;;;;;;30.37;21.20;;;;;;;;;;748964;187;936587;-63
2022/12/08 08:50:04;;;;;;;39.83;23.30;;;;;;;;;;742324;187;916976;-60
2022/12/08 08:52:29;;;;;;;37.87;21.70;;;;;;;;;;734663;189;918985;-62
2022/12/08 08:54:56;;;;;;;29.77;16.50;;;;;;;;;;743875;186;919237;-63
2022/12/08 08:57:22;;;;;;;24.30;17.00;;;;;;;;;;754618;186;918121;-64
2022/12/08 08:59:48;;;;;;;41.43;21.60;;;;;;;;;;746169;186;919298;-60
2022/12/08 09:02:14;;;;;;;30.17;19.37;;;;;;;;;;738429;190;919002;-61
2022/12/08 09:04:40;;;;;;;50.77;27.07;;;;;;;;;;739173;188;920572;-62
2022/12/08 09:07:06;;;;;;;46.08;26.75;;;;;;;;;;745562;187;921141;-60
2022/12/08 09:09:32;;;;;;;45.93;28.90;;;;;;;;;;743223;187;1024355;-62
2022/12/08 09:11:58;;;;;;;39.07;21.57;;;;;;;;;;741703;186;916280;-63
2022/12/08 09:14:24;;;;;;;30.47;18.20;;;;;;;;;;738247;187;919051;-61
2022/12/08 09:16:50;;;;;;;37.47;18.70;;;;;;;;;;735697;186;917346;-61
2022/12/08 09:19:15;;;;;;;30.30;17.45;;;;;;;;;;739665;189;918374;-61
2022/12/08 09:21:41;;;;;;;40.00;18.67;;;;;;;;;;749374;186;919249;-61
2022/12/08 09:24:14;;;;;;;26.97;17.07;;;;;;;;;;734796;189;947599;-63
2022/12/08 09:26:33;;;;;;;27.50;17.30;;;;;;;;;;733169;186;917640;-63
2022/12/08 09:28:59;;;;;;;26.67;17.47;;;;;;;;;;727559;189;917233;-63
2022/12/08 09:31:25;;;;;;;24.80;14.23;;;;;;;;;;723358;190;914411;-62
2022/12/08 09:33:50;;;;;;;22.77;9.70;;;;;;;;;;712763;194;915280;-63
2022/12/08 09:36:16;;;;;;;11.17;6.77;;;;;;;;;;748692;187;917415;-63
2022/12/08 09:38:42;;;;;;;8.87;5.90;;;;;;;;;;735712;187;919165;-62
2022/12/08 09:41:14;;;;;;;6.00;3.60;;;;;;;;;;737333;186;919934;-62
2022/12/08 09:43:40;;;;;;;5.50;3.90;;;;;;;;;;742435;187;1021386;-60
2022/12/08 09:46:06;;;;;;;5.03;3.13;;;;;;;;;;746395;186;917575;-62
2022/12/08 09:48:32;;;;;;;5.67;3.30;;;;;;;;;;736924;187;918636;-63
2022/12/08 09:50:58;;;;;;;4.83;3.13;;;;;;;;;;738073;187;919241;-60
2022/12/08 09:53:40;;;;;;;4.87;3.30;;;;;;;;;;746628;187;920990;-60
2022/12/08 09:56:06;;;;;;;5.00;2.57;;;;;;;;;;751665;186;918461;-60
2022/12/08 09:58:50;;;;;;;7.13;5.40;;;;;;;;;;749787;186;928125;-62
2022/12/08 10:01:15;;;;;;;5.18;3.42;;;;;;;;;;746936;186;919138;-59
2022/12/08 10:03:41;;;;;;;5.70;3.83;;;;;;;;;;748565;186;921108;-62
2022/12/08 10:06:06;;;;;;;5.80;3.77;;;;;;;;;;740792;187;919959;-61
2022/12/08 10:08:33;;;;;;;6.55;4.10;;;;;;;;;;737557;187;918050;-60
2022/12/08 10:10:59;;;;;;;8.73;5.40;;;;;;;;;;742355;187;918666;-63
2022/12/08 10:13:27;;;;;;;6.40;4.80;;;;;;;;;;748029;187;915717;-62
2022/12/08 10:16:12;;;;;;;5.90;3.90;;;;;;;;;;751976;186;816463;-62
2022/12/08 10:18:38;;;;;;;9.10;5.07;;;;;;;;;;753185;187;918507;-60
2022/12/08 10:21:09;;;;;;;8.60;4.43;;;;;;;;;;744263;186;919855;-59
2022/12/08 10:23:35;;;;;;;6.43;4.30;;;;;;;;;;732627;186;919097;-61
2022/12/08 10:26:02;;;;;;;9.15;5.78;;;;;;;;;;751230;187;918366;-62
2022/12/08 10:28:28;;;;;;;6.57;4.43;;;;;;;;;;749892;187;816762;-61
2022/12/08 10:30:54;;;;;;;7.10;4.37;;;;;;;;;;750910;185;920147;-62
2022/12/08 10:33:19;;;;;;;7.70;5.60;;;;;;;;;;747640;186;920168;-61
2022/12/08 10:35:49;;;;;;;6.23;4.10;;;;;;;;;;754337;186;915241;-59
2022/12/08 10:38:16;;;;;;;5.67;4.00;;;;;;;;;;752042;186;815921;-59
2022/12/08 10:40:41;;;;;;;5.93;4.10;;;;;;;;;;742988;186;918875;-59
2022/12/08 10:43:07;;;;;;;5.80;3.50;;;;;;;;;;736380;186;914063;-60
2022/12/08 10:45:37;;;;;;;5.72;3.20;;;;;;;;;;732610;189;918517;-61
2022/12/08 10:48:05;;;;;;;4.07;2.67;;;;;;;;;;736446;190;919931;-59
2022/12/08 10:50:34;;;;;;;5.53;3.87;;;;;;;;;;748083;187;917683;-62
2022/12/08 10:53:00;;;;;;;5.70;3.50;;;;;;;;;;748600;186;919562;-62
2022/12/08 10:55:26;;;;;;;4.47;3.35;;;;;;;;;;736869;187;919526;-62
2022/12/08 10:57:52;;;;;;;9.40;5.73;;;;;;;;;;749029;187;918348;-63
2022/12/08 11:00:18;;;;;;;9.70;6.10;;;;;;;;;;739639;186;922225;-60
2022/12/08 11:02:49;;;;;;;10.97;6.00;;;;;;;;;;757187;187;919660;-62
2022/12/08 11:05:15;;;;;;;10.33;6.70;;;;;;;;;;750841;186;816955;-62
2022/12/08 11:07:40;;;;;;;11.60;5.62;;;;;;;;;;737313;190;919377;-59
2022/12/08 11:10:07;;;;;;;11.47;6.20;;;;;;;;;;738506;187;921139;-62
2022/12/08 11:12:35;;;;;;;10.57;5.80;;;;;;;;;;736816;189;920374;-60
2022/12/08 11:15:01;;;;;;;8.20;5.27;;;;;;;;;;727095;186;920918;-59
2022/12/08 11:17:25;;;;;;;8.47;5.43;;;;;;;;;;734628;186;1020534;-60
2022/12/08 11:19:56;;;;;;;8.30;4.40;;;;;;;;;;741102;188;917857;-59
2022/12/08 11:22:23;;;;;;;7.93;4.90;;;;;;;;;;736256;190;918143;-61
2022/12/08 11:24:55;;;;;;;8.70;5.33;;;;;;;;;;736187;187;919165;-58
2022/12/08 11:27:20;;;;;;;11.47;5.70;;;;;;;;;;735611;190;919024;-63
2022/12/08 11:29:46;;;;;;;8.95;5.18;;;;;;;;;;745511;188;818899;-61
2022/12/08 11:32:12;;;;;;;7.70;5.47;;;;;;;;;;748769;186;916730;-62
2022/12/08 11:34:41;;;;;;;16.30;5.60;;;;;;;;;;736185;188;919618;-59
2022/12/08 11:37:07;;;;;;;10.40;6.40;;;;;;;;;;733821;190;818594;-63
2022/12/08 11:39:33;;;;;;;10.03;7.03;;;;;;;;;;728259;191;865898;-61
2022/12/08 11:41:58;;;;;;;9.13;5.75;;;;;;;;;;745597;186;918651;-62
2022/12/08 11:44:30;;;;;;;11.80;6.45;;;;;;;;;;751774;186;919564;-60
2022/12/08 11:46:58;;;;;;;10.17;6.43;;;;;;;;;;753998;186;918711;-61
2022/12/08 11:49:23;;;;;;;9.37;6.93;;;;;;;;;;747463;187;908605;-62
2022/12/08 11:51:49;;;;;;;11.10;6.83;;;;;;;;;;739541;190;918370;-62
2022/12/08 11:54:16;;;;;;;16.13;9.50;;;;;;;;;;740828;188;920074;-63
2022/12/08 11:56:44;;;;;;;15.37;10.20;;;;;;;;;;729980;189;919544;-63
2022/12/08 11:59:27;;;;;;;18.40;11.17;;;;;;;;;;721308;190;939170;-60
2022/12/08 12:01:53;;;;;;;19.27;12.30;;;;;;;;;;736547;187;918539;-62
2022/12/08 12:04:25;;;;;;;19.13;11.70;;;;;;;;;;735036;190;919273;-59
2022/12/08 12:06:53;;;;;;;19.17;12.23;;;;;;;;;;738853;189;873926;-62
2022/12/08 12:09:18;;;;;;;16.63;11.33;;;;;;;;;;739750;189;918906;-61
2022/12/08 12:14:17;;;;;;;21.60;11.93;;;;;;;;;;735383;188;919778;-62
2022/12/08 12:16:46;;;;;;;19.50;12.83;;;;;;;;;;740362;190;919256;-59
2022/12/08 12:19:11;;;;;;;25.10;14.40;;;;;;;;;;709976;191;917376;-62
2022/12/08 12:21:38;;;;;;;27.13;14.95;;;;;;;;;;744097;188;918692;-63
2022/12/08 12:24:05;;;;;;;23.58;13.30;;;;;;;;;;738064;190;922652;-62
2022/12/08 12:26:30;;;;;;;23.53;14.20;;;;;;;;;;741430;188;828343;-60
2022/12/08 12:28:56;;;;;;;22.87;14.10;;;;;;;;;;724631;194;922322;-59
2022/12/08 12:31:22;;;;;;;22.33;14.20;;;;;;;;;;734488;190;920469;-60
2022/12/08 12:33:48;;;;;;;24.37;15.10;;;;;;;;;;728800;191;805977;-62
2022/12/08 12:36:14;;;;;;;24.40;14.93;;;;;;;;;;742488;187;914221;-62
2022/12/08 12:41:12;;;;;;;27.13;16.95;;;;;;;;;;747854;187;846954;-62
2022/12/08 12:43:38;;;;;;;24.57;15.17;;;;;;;;;;751705;187;920173;-62
2022/12/08 12:46:10;;;;;;;25.97;14.00;;;;;;;;;;727592;190;925692;-61
2022/12/08 12:48:36;;;;;;;24.80;14.33;;;;;;;;;;719004;194;919509;-60
2022/12/08 12:51:02;;;;;;;24.27;14.07;;;;;;;;;;749423;186;918952;-62
2022/12/08 12:53:42;;;;;;;21.97;15.47;;;;;;;;;;735272;187;919429;-62
2022/12/08 12:56:11;;;;;;;28.50;17.20;;;;;;;;;;745743;186;919364;-60
2022/12/08 12:58:35;;;;;;;27.00;15.50;;;;;;;;;;739113;186;895260;-59
2022/12/08 13:01:06;;;;;;;27.00;16.87;;;;;;;;;;751350;187;920403;-59
2022/12/08 13:03:32;;;;;;;28.63;17.20;;;;;;;;;;734503;190;913129;-62
2022/12/08 13:05:57;;;;;;;26.00;16.45;;;;;;;;;;749917;186;921565;-60
2022/12/08 13:08:23;;;;;;;23.27;14.20;;;;;;;;;;735793;190;919228;-60
2022/12/08 13:10:55;;;;;;;22.73;15.20;;;;;;;;;;752097;186;718551;-62
2022/12/08 13:13:21;;;;;;;21.60;13.40;;;;;;;;;;751213;185;818532;-59
2022/12/08 13:15:51;;;;;;;18.37;13.00;;;;;;;;;;747917;186;919628;-61
2022/12/08 13:18:17;;;;;;;61.20;15.80;;;;;;;;;;746883;187;919580;-60
2022/12/08 13:20:43;;;;;;;20.40;12.50;;;;;;;;;;752397;187;918536;-59
2022/12/08 13:23:10;;;;;;;16.63;11.57;;;;;;;;;;748683;187;920656;-60
2022/12/08 13:25:46;;;;;;;18.52;12.55;;;;;;;;;;750152;186;917426;-61
2022/12/08 13:28:13;;;;;;;22.10;10.40;;;;;;;;;;732183;188;917678;-62
2022/12/08 13:30:40;;;;;;;19.27;11.50;;;;;;;;;;742389;186;860089;-63
2022/12/08 13:33:06;;;;;;;14.33;10.53;;;;;;;;;;738608;187;918194;-59
2022/12/08 13:35:32;;;;;;;17.33;11.97;;;;;;;;;;737875;190;918959;-61
2022/12/08 13:37:57;;;;;;;16.67;10.60;;;;;;;;;;751922;187;919214;-63
2022/12/08 13:40:23;;;;;;;16.70;11.20;;;;;;;;;;721154;192;913380;-61
2022/12/08 13:42:49;;;;;;;19.90;11.60;;;;;;;;;;722235;193;920590;-59
2022/12/08 13:45:16;;;;;;;21.07;12.73;;;;;;;;;;733103;190;919477;-60
2022/12/08 13:47:45;;;;;;;18.00;11.40;;;;;;;;;;749454;186;918313;-62
2022/12/08 13:50:13;;;;;;;19.70;12.60;;;;;;;;;;715127;194;919092;-59
2022/12/08 13:52:43;;;;;;;16.05;10.68;;;;;;;;;;730734;190;918348;-61
2022/12/08 13:55:10;;;;;;;13.90;9.40;;;;;;;;;;724531;193;919207;-62
2022/12/08 13:57:35;;;;;;;13.93;10.00;;;;;;;;;;738044;186;918548;-62
2022/12/08 14:00:01;;;;;;;15.70;9.07;;;;;;;;;;731232;190;920759;-59
2022/12/08 14:02:27;;;;;;;18.53;11.17;;;;;;;;;;733986;187;923533;-60
2022/12/08 14:04:53;;;;;;;15.63;10.50;;;;;;;;;;738339;188;919752;-61
2022/12/08 14:07:19;;;;;;;18.00;11.87;;;;;;;;;;747993;185;920908;-60
2022/12/08 14:09:45;;;;;;;16.12;10.93;;;;;;;;;;740462;190;919348;-61
2022/12/08 14:12:17;;;;;;;21.47;12.83;;;;;;;;;;747707;186;919991;-60
2022/12/08 14:14:44;;;;;;;20.77;13.27;;;;;;;;;;724257;194;716616;-61
2022/12/08 14:17:10;;;;;;;25.80;14.63;;;;;;;;;;750228;186;816599;-62